Terminal Aerodrome Forecast
Issued by NWS Sterling, VA

Current Version | Previous Version | Text Only | Print | Product List | Glossary Off
Versions: 1 2 3 4 5 6 7 8 9 10 11 12 13 14 15 16 17 18 19 20 21 22 23 24 25 26 27 28 29 30 31

885
FTUS41 KLWX 030848 AAA
TAFDCA
TAF AMD
KDCA 030848Z 0309/0406 15006KT P6SM OVC035
     FM031000 15006KT 5SM -DZ BR OVC015 WS020/16040KT
     FM031400 18010KT 5SM -DZ BR OVC008 WS020/19045KT
     FM031700 18011G20KT 3SM -RA BR OVC025
     FM032200 21008KT 2SM -RA BR OVC025
     FM040300 VRB03KT P6SM -SHRA OVC050=

USA.gov is the U.S. government's official web portal to all federal, state and local government web resources and services.